createdAt,value
2022-10-11T00:01:03.435Z,63.64
2022-10-11T00:03:40.374Z,63.77
2022-10-11T00:06:09.754Z,63.69
2022-10-11T00:08:37.427Z,63.73
2022-10-11T00:11:08.527Z,63.64
2022-10-11T00:13:37.625Z,63.42
2022-10-11T00:16:12.197Z,63.44
2022-10-11T00:18:41.621Z,63.39
2022-10-11T00:21:13.539Z,63.50
2022-10-11T00:23:43.169Z,63.74
2022-10-11T00:26:12.098Z,63.65
2022-10-11T00:28:41.387Z,63.66
2022-10-11T00:31:14.823Z,63.54
2022-10-11T00:33:42.673Z,63.56
2022-10-11T00:36:14.788Z,63.52
2022-10-11T00:38:45.025Z,63.75
2022-10-11T00:41:14.531Z,63.47
2022-10-11T00:43:42.296Z,63.57
2022-10-11T00:46:16.050Z,63.63
2022-10-11T00:48:54.744Z,63.86
2022-10-11T00:51:42.344Z,64.13
2022-10-11T00:54:15.695Z,64.38
2022-10-11T00:56:49.837Z,64.35
2022-10-11T00:59:24.925Z,64.20
2022-10-11T01:01:54.002Z,64.24
2022-10-11T01:04:22.949Z,64.35
2022-10-11T01:06:52.901Z,64.40
2022-10-11T01:09:23.164Z,64.27
2022-10-11T01:11:54.087Z,64.38
2022-10-11T01:14:43.945Z,64.47
2022-10-11T01:17:41.483Z,64.49
2022-10-11T01:20:17.928Z,64.60
2022-10-11T01:23:26.873Z,64.68
2022-10-11T01:26:03.712Z,64.83
2022-10-11T01:28:50.472Z,64.80
2022-10-11T01:31:36.156Z,64.79
2022-10-11T01:34:23.736Z,64.82
2022-10-11T01:37:05.734Z,64.93
2022-10-11T01:39:43.217Z,64.90
2022-10-11T01:42:13.854Z,64.99
2022-10-11T01:44:46.489Z,65.06
2022-10-11T01:47:14.238Z,65.03
2022-10-11T01:49:44.115Z,65.09
2022-10-11T01:52:12.979Z,65.09
2022-10-11T01:55:09.487Z,65.06
2022-10-11T01:58:06.675Z,65.12
2022-10-11T02:01:05.753Z,65.12
2022-10-11T02:03:56.962Z,65.19
2022-10-11T02:06:33.875Z,65.14
2022-10-11T02:09:30.438Z,65.11
2022-10-11T02:12:08.404Z,65.11
2022-10-11T02:14:42.017Z,65.20
2022-10-11T02:17:16.939Z,65.09
2022-10-11T02:19:50.650Z,65.25
2022-10-11T02:22:34.923Z,65.14
2022-10-11T02:25:09.382Z,65.24
2022-10-11T02:27:40.872Z,65.19
2022-10-11T02:30:12.295Z,65.16
2022-10-11T02:32:44.663Z,65.04
2022-10-11T02:35:13.862Z,65.19
2022-10-11T02:38:02.651Z,65.22
2022-10-11T02:40:38.081Z,65.33
2022-10-11T02:43:31.648Z,65.29
2022-10-11T02:46:03.687Z,65.35
2022-10-11T02:48:36.629Z,65.35
2022-10-11T02:51:05.797Z,65.32
2022-10-11T02:53:34.419Z,65.33
2022-10-11T02:56:02.219Z,65.31
2022-10-11T02:58:31.109Z,65.30
2022-10-11T03:00:58.761Z,65.39
2022-10-11T03:03:28.650Z,65.28
2022-10-11T03:06:03.074Z,65.36
2022-10-11T03:08:33.323Z,65.44
2022-10-11T03:11:01.014Z,65.47
2022-10-11T03:13:28.646Z,65.42
2022-10-11T03:16:03.307Z,65.49
2022-10-11T03:18:33.821Z,65.50
2022-10-11T03:21:02.810Z,65.43
2022-10-11T03:23:30.542Z,65.44
2022-10-11T03:25:58.260Z,65.53
2022-10-11T03:28:25.998Z,65.57
2022-10-11T03:30:53.749Z,65.53
2022-10-11T03:33:22.618Z,65.54
2022-10-11T03:35:50.666Z,65.51
2022-10-11T03:38:21.945Z,65.46
2022-10-11T03:40:49.987Z,65.49
2022-10-11T03:43:18.306Z,65.59
2022-10-11T03:45:46.064Z,65.54
2022-10-11T03:48:13.790Z,65.54
2022-10-11T03:50:42.466Z,65.49
2022-10-11T03:53:11.434Z,65.58
2022-10-11T03:55:40.748Z,65.48
2022-10-11T03:58:08.470Z,65.55
2022-10-11T04:00:37.167Z,65.55
2022-10-11T04:03:07.377Z,65.66
2022-10-11T04:05:34.973Z,65.69
2022-10-11T04:08:05.429Z,65.59
2022-10-11T04:10:37.091Z,65.65
2022-10-11T04:13:05.995Z,65.60
2022-10-11T04:15:34.237Z,65.75
2022-10-11T04:18:01.850Z,65.64
2022-10-11T04:20:29.528Z,65.67
2022-10-11T04:22:57.171Z,65.66
2022-10-11T04:25:26.024Z,65.62
2022-10-11T04:27:53.767Z,65.69
2022-10-11T04:30:22.842Z,65.61
2022-10-11T04:32:51.977Z,65.63
2022-10-11T04:35:19.695Z,65.79
2022-10-11T04:37:47.379Z,65.66
2022-10-11T04:40:15.062Z,65.76
2022-10-11T04:42:42.777Z,65.74
2022-10-11T04:45:11.292Z,65.73
2022-10-11T04:47:41.525Z,65.84
2022-10-11T04:50:09.316Z,65.79
2022-10-11T04:52:37.062Z,65.80
2022-10-11T04:55:05.184Z,65.76
2022-10-11T04:57:33.808Z,65.82
2022-10-11T05:00:01.546Z,65.82
2022-10-11T05:02:31.176Z,65.86
2022-10-11T05:04:58.917Z,65.93
2022-10-11T05:07:26.604Z,65.87
2022-10-11T05:09:54.662Z,65.93
2022-10-11T05:12:22.461Z,65.94
2022-10-11T05:14:50.107Z,65.93
2022-10-11T05:17:17.787Z,65.98
2022-10-11T05:19:45.473Z,65.90
2022-10-11T05:22:13.237Z,65.90
2022-10-11T05:24:40.916Z,65.97
2022-10-11T05:27:08.819Z,65.94
2022-10-11T05:29:36.588Z,65.94
2022-10-11T05:32:04.584Z,65.92
2022-10-11T05:34:32.498Z,65.99
2022-10-11T05:37:00.134Z,65.87
2022-10-11T05:39:28.668Z,65.98
2022-10-11T05:41:57.488Z,65.98
2022-10-11T05:44:25.353Z,66.00
2022-10-11T05:46:53.019Z,65.95
2022-10-11T05:49:20.715Z,65.94
2022-10-11T05:51:48.411Z,65.89
2022-10-11T05:54:16.058Z,65.94
2022-10-11T05:56:43.804Z,65.88
2022-10-11T05:59:11.521Z,65.97
2022-10-11T06:01:39.277Z,65.86
2022-10-11T06:04:09.445Z,65.92
2022-10-11T06:06:37.169Z,65.94
2022-10-11T06:09:04.782Z,65.88
2022-10-11T06:11:33.028Z,65.90
2022-10-11T06:14:01.936Z,65.92
2022-10-11T06:16:29.680Z,65.89
2022-10-11T06:18:58.531Z,65.90
2022-10-11T06:21:26.368Z,65.93
2022-10-11T06:24:00.854Z,65.92
2022-10-11T06:26:33.042Z,65.91
2022-10-11T06:29:01.977Z,65.82
2022-10-11T06:31:29.682Z,65.85
2022-10-11T06:34:00.516Z,65.88
2022-10-11T06:36:29.945Z,65.93
2022-10-11T06:38:57.682Z,65.96
2022-10-11T06:41:29.799Z,65.91
2022-10-11T06:43:58.722Z,65.88
2022-10-11T06:46:30.424Z,65.87
2022-10-11T06:48:59.299Z,65.74
2022-10-11T06:51:31.075Z,65.77
2022-10-11T06:54:01.911Z,65.84
2022-10-11T06:56:31.843Z,65.79
2022-10-11T06:59:01.169Z,65.75
2022-10-11T07:01:28.918Z,65.68
2022-10-11T07:04:01.258Z,65.73
2022-10-11T07:06:31.580Z,65.74
2022-10-11T07:09:01.254Z,65.57
2022-10-11T07:11:29.165Z,65.63
2022-10-11T07:14:01.583Z,65.60
2022-10-11T07:16:30.706Z,65.54
2022-10-11T07:19:01.105Z,65.49
2022-10-11T07:21:32.324Z,65.53
2022-10-11T07:24:01.795Z,65.54
2022-10-11T07:26:37.472Z,65.55
2022-10-11T07:29:10.835Z,65.59
2022-10-11T07:31:42.448Z,65.51
2022-10-11T07:34:12.002Z,65.48
2022-10-11T07:36:41.095Z,65.34
2022-10-11T07:39:09.900Z,65.36
2022-10-11T07:41:44.685Z,65.31
2022-10-11T07:44:17.154Z,65.36
2022-10-11T07:46:44.798Z,65.33
2022-10-11T07:49:12.537Z,65.31
2022-10-11T07:51:40.237Z,65.22
2022-10-11T07:54:09.949Z,65.12
2022-10-11T07:56:38.890Z,65.14
2022-10-11T07:59:06.730Z,65.19
2022-10-11T08:01:34.889Z,65.10
2022-10-11T08:04:03.310Z,65.10
2022-10-11T08:06:33.544Z,64.92
2022-10-11T08:09:01.840Z,64.50
2022-10-11T08:11:38.576Z,64.35
2022-10-11T08:14:12.496Z,64.93
2022-10-11T08:16:41.815Z,64.74
2022-10-11T08:19:10.393Z,64.77
2022-10-11T08:21:38.038Z,64.45
2022-10-11T08:24:07.725Z,64.35
2022-10-11T08:26:35.600Z,64.54
2022-10-11T08:29:06.243Z,64.54
2022-10-11T08:31:35.806Z,64.57
2022-10-11T08:34:04.801Z,63.76
2022-10-11T08:36:33.674Z,63.73
2022-10-11T08:39:03.299Z,64.26
2022-10-11T08:41:55.262Z,64.25
2022-10-11T08:47:37.875Z,64.48
2022-10-11T08:50:16.700Z,64.44
2022-10-11T08:52:56.218Z,64.31
2022-10-11T08:55:47.875Z,64.28
2022-10-11T08:58:29.921Z,64.17
2022-10-11T09:00:59.398Z,64.22
2022-10-11T09:03:40.482Z,64.25
2022-10-11T09:06:23.595Z,64.20
2022-10-11T09:09:26.509Z,64.23
2022-10-11T09:12:06.263Z,64.11
2022-10-11T09:14:40.497Z,64.16
2022-10-11T09:17:20.472Z,64.19
2022-10-11T09:20:13.305Z,64.15
2022-10-11T09:23:02.702Z,64.06
2022-10-11T09:25:34.971Z,64.12
2022-10-11T09:28:13.477Z,64.14
2022-10-11T09:30:53.754Z,64.09
2022-10-11T09:33:33.941Z,64.16
2022-10-11T09:36:12.784Z,64.11
2022-10-11T09:39:06.770Z,64.08
2022-10-11T09:41:48.934Z,64.08
2022-10-11T09:44:28.569Z,63.97
2022-10-11T09:46:58.876Z,63.90
2022-10-11T09:49:38.746Z,63.90
2022-10-11T09:52:17.561Z,64.04
2022-10-11T09:54:55.390Z,64.09
2022-10-11T09:57:27.438Z,64.07
2022-10-11T10:00:21.761Z,64.01
2022-10-11T10:02:57.255Z,64.05
2022-10-11T10:05:36.816Z,63.94
2022-10-11T10:08:08.485Z,63.91
2022-10-11T10:10:41.605Z,63.97
2022-10-11T10:13:24.314Z,63.95
2022-10-11T10:16:01.102Z,63.90
2022-10-11T10:18:52.787Z,64.04
2022-10-11T10:21:29.530Z,64.01
2022-10-11T10:24:04.325Z,64.08
2022-10-11T10:26:34.240Z,64.22
2022-10-11T10:29:08.206Z,64.19
2022-10-11T10:32:01.851Z,64.32
2022-10-11T10:34:37.767Z,64.23
2022-10-11T10:37:08.491Z,64.27
2022-10-11T10:39:55.047Z,64.38
2022-10-11T10:42:24.570Z,64.40
2022-10-11T10:44:59.636Z,64.42
2022-10-11T10:47:57.015Z,64.36
2022-10-11T10:50:41.119Z,64.60
2022-10-11T10:53:20.756Z,64.52
2022-10-11T10:56:01.081Z,64.56
2022-10-11T10:58:45.682Z,64.35
2022-10-11T11:01:28.762Z,64.24
2022-10-11T11:03:59.703Z,64.28
2022-10-11T11:07:01.307Z,64.32
2022-10-11T11:09:50.357Z,64.36
2022-10-11T11:12:42.494Z,64.36
2022-10-11T11:15:29.188Z,64.33
2022-10-11T11:18:26.242Z,64.15
2022-10-11T11:21:26.784Z,64.17
2022-10-11T11:24:18.647Z,64.11
2022-10-11T11:27:11.447Z,64.08
2022-10-11T11:29:54.540Z,64.24
2022-10-11T11:32:37.240Z,64.32
2022-10-11T11:35:18.068Z,64.19
2022-10-11T11:37:55.551Z,64.04
2022-10-11T11:40:38.343Z,64.10
2022-10-11T11:43:24.202Z,64.11
2022-10-11T11:46:01.223Z,63.98
2022-10-11T11:48:29.050Z,64.34
2022-10-11T11:51:05.323Z,64.16
2022-10-11T11:53:43.696Z,64.17
2022-10-11T11:56:50.397Z,63.93
2022-10-11T11:59:29.830Z,64.24
2022-10-11T12:02:12.992Z,64.17
2022-10-11T12:04:49.408Z,64.32
2022-10-11T12:07:21.208Z,64.35
2022-10-11T12:10:13.951Z,64.28
2022-10-11T12:12:43.325Z,64.20
2022-10-11T12:15:26.253Z,64.13
2022-10-11T12:17:58.116Z,64.09
2022-10-11T12:20:30.005Z,64.09
2022-10-11T12:23:06.638Z,64.07
2022-10-11T12:25:39.230Z,63.94
2022-10-11T12:28:40.533Z,64.26
2022-10-11T12:31:29.436Z,64.08
2022-10-11T12:34:02.018Z,64.10
2022-10-11T12:36:29.780Z,64.11
2022-10-11T12:39:45.654Z,64.12
2022-10-11T12:42:25.064Z,64.02
2022-10-11T12:45:10.887Z,63.94
2022-10-11T12:47:48.801Z,63.83
2022-10-11T12:50:41.376Z,63.72
2022-10-11T12:53:33.500Z,63.63
2022-10-11T12:56:27.449Z,63.77
2022-10-11T12:59:06.394Z,63.84
2022-10-11T13:01:47.698Z,63.73
2022-10-11T13:04:21.624Z,63.74
2022-10-11T13:06:56.913Z,63.77
2022-10-11T13:09:29.456Z,63.75
2022-10-11T13:12:14.461Z,63.77
2022-10-11T13:14:55.425Z,63.72
2022-10-11T13:17:38.639Z,63.72
2022-10-11T13:20:20.050Z,63.59
2022-10-11T13:22:53.132Z,63.59
2022-10-11T13:25:27.994Z,63.56
2022-10-11T13:27:59.624Z,63.49
2022-10-11T13:30:31.958Z,63.53
2022-10-11T13:33:01.122Z,63.36
2022-10-11T13:35:35.221Z,63.56
2022-10-11T13:38:09.631Z,63.45
2022-10-11T13:40:38.747Z,63.55
2022-10-11T13:43:06.585Z,63.45
2022-10-11T13:45:37.094Z,63.44
2022-10-11T13:48:15.870Z,63.44
2022-10-11T13:50:52.643Z,63.54
2022-10-11T13:53:25.476Z,63.50
2022-10-11T13:55:59.999Z,63.53
2022-10-11T13:58:40.486Z,63.57
2022-10-11T14:01:20.913Z,63.69
2022-10-11T14:04:17.462Z,63.63
2022-10-11T14:06:53.040Z,63.74
2022-10-11T14:09:29.036Z,63.65
2022-10-11T14:12:26.985Z,63.70
2022-10-11T14:14:54.853Z,63.74
2022-10-11T14:17:39.285Z,63.71
2022-10-11T14:20:21.143Z,63.78
2022-10-11T14:22:54.087Z,63.76
2022-10-11T14:25:22.180Z,63.81
2022-10-11T14:27:55.184Z,63.87
2022-10-11T14:30:27.599Z,63.84
2022-10-11T14:33:01.560Z,63.91
2022-10-11T14:35:32.518Z,63.83
2022-10-11T14:38:01.545Z,63.90
2022-10-11T14:40:31.944Z,63.85
2022-10-11T14:43:00.835Z,63.88
2022-10-11T14:45:30.138Z,63.85
2022-10-11T14:47:58.843Z,63.84
2022-10-11T14:50:43.209Z,63.92
2022-10-11T14:53:11.935Z,63.94
2022-10-11T14:55:41.766Z,64.02
2022-10-11T14:58:13.656Z,63.98
2022-10-11T15:00:42.058Z,64.07
2022-10-11T15:03:09.879Z,64.04
2022-10-11T15:05:39.370Z,63.97
2022-10-11T15:08:08.492Z,63.99
2022-10-11T15:10:41.185Z,64.01
2022-10-11T15:13:10.274Z,64.07
2022-10-11T15:15:41.624Z,64.08
2022-10-11T15:18:13.623Z,64.09
2022-10-11T15:20:46.213Z,64.13
2022-10-11T15:23:15.277Z,64.15
2022-10-11T15:25:45.621Z,64.19
2022-10-11T15:28:30.113Z,64.22
2022-10-11T15:30:59.156Z,64.26
2022-10-11T15:33:28.093Z,64.36
2022-10-11T15:35:55.920Z,64.27
2022-10-11T15:38:26.144Z,64.40
2022-10-11T15:40:55.326Z,64.33
2022-10-11T15:43:25.685Z,64.39
2022-10-11T15:45:57.927Z,64.42
2022-10-11T15:48:27.900Z,64.46
2022-10-11T15:50:55.736Z,64.56
2022-10-11T15:53:30.175Z,64.43
2022-10-11T15:56:05.888Z,64.45
2022-10-11T15:58:40.378Z,64.57
2022-10-11T16:01:19.219Z,64.63
2022-10-11T16:03:50.805Z,64.67
2022-10-11T16:06:19.437Z,64.63
2022-10-11T16:08:48.034Z,64.66
2022-10-11T16:11:17.979Z,64.74
2022-10-11T16:13:45.621Z,64.74
2022-10-11T16:16:14.306Z,64.80
2022-10-11T16:18:42.039Z,64.99
2022-10-11T16:21:16.516Z,64.91
2022-10-11T16:23:44.139Z,64.92
2022-10-11T16:26:16.604Z,64.99
2022-10-11T16:28:48.728Z,65.04
2022-10-11T16:31:20.757Z,64.97
2022-10-11T16:33:50.470Z,65.00
2022-10-11T16:36:41.288Z,64.95
2022-10-11T16:39:14.812Z,65.01
2022-10-11T16:41:44.677Z,65.13
2022-10-11T16:44:20.024Z,65.00
2022-10-11T16:46:49.485Z,65.19
2022-10-11T16:49:22.626Z,65.21
2022-10-11T16:51:55.233Z,65.24
2022-10-11T16:54:23.041Z,65.23
2022-10-11T16:56:50.826Z,65.17
2022-10-11T16:59:20.011Z,65.33
2022-10-11T17:01:49.404Z,65.44
2022-10-11T17:04:17.237Z,65.41
2022-10-11T17:06:46.000Z,65.36
2022-10-11T17:09:17.205Z,65.39
2022-10-11T17:11:45.613Z,65.44
2022-10-11T17:14:14.469Z,65.68
2022-10-11T17:16:43.448Z,65.55
2022-10-11T17:19:17.467Z,65.47
2022-10-11T17:21:45.310Z,65.64
2022-10-11T17:24:13.009Z,65.54
2022-10-11T17:26:40.723Z,65.51
2022-10-11T17:29:18.977Z,65.58
2022-10-11T17:31:49.414Z,65.69
2022-10-11T17:34:18.491Z,65.83
2022-10-11T17:36:48.167Z,65.84
2022-10-11T17:39:20.953Z,65.78
2022-10-11T17:41:50.070Z,65.80
2022-10-11T17:44:19.399Z,65.65
2022-10-11T17:46:49.187Z,65.79
2022-10-11T17:49:17.941Z,65.91
2022-10-11T17:51:46.204Z,65.89
2022-10-11T17:54:15.378Z,65.85
2022-10-11T17:56:43.121Z,65.88
2022-10-11T17:59:17.798Z,65.97
2022-10-11T18:01:47.054Z,66.06
2022-10-11T18:04:19.142Z,65.98
2022-10-11T18:06:49.138Z,66.11
2022-10-11T18:09:18.866Z,66.09
2022-10-11T18:11:48.303Z,66.07
2022-10-11T18:14:17.333Z,66.15
2022-10-11T18:16:45.691Z,66.17
2022-10-11T18:19:14.987Z,66.25
2022-10-11T18:21:43.985Z,66.24
2022-10-11T18:24:16.393Z,66.32
2022-10-11T18:26:49.922Z,66.30
2022-10-11T18:29:17.495Z,66.43
2022-10-11T18:31:46.500Z,66.37
2022-10-11T18:34:19.094Z,66.36
2022-10-11T18:36:47.414Z,66.46
2022-10-11T18:39:15.457Z,66.41
2022-10-11T18:41:45.462Z,66.42
2022-10-11T18:44:15.749Z,66.43
2022-10-11T18:46:44.861Z,66.49
2022-10-11T18:49:14.779Z,66.44
2022-10-11T18:51:45.076Z,66.51
2022-10-11T18:54:18.336Z,66.49
2022-10-11T18:56:50.127Z,66.74
2022-10-11T18:59:18.485Z,66.68
2022-10-11T19:01:53.166Z,66.65
2022-10-11T19:04:22.116Z,66.64
2022-10-11T19:06:53.660Z,66.59
2022-10-11T19:09:26.176Z,66.70
2022-10-11T19:11:57.417Z,66.62
2022-10-11T19:14:30.291Z,66.74
2022-10-11T19:16:58.731Z,66.79
2022-10-11T19:19:30.683Z,66.79
2022-10-11T19:22:00.823Z,66.89
2022-10-11T19:24:31.680Z,66.82
2022-10-11T19:27:03.417Z,66.85
2022-10-11T19:29:37.523Z,66.83
2022-10-11T19:32:08.213Z,66.91
2022-10-11T19:34:37.057Z,66.82
2022-10-11T19:37:06.009Z,66.90
2022-10-11T19:39:36.196Z,66.92
2022-10-11T19:42:05.035Z,66.97
2022-10-11T19:44:38.720Z,67.04
2022-10-11T19:47:10.594Z,66.99
2022-10-11T19:49:38.296Z,67.01
2022-10-11T19:52:07.156Z,66.94
2022-10-11T19:54:35.902Z,67.07
2022-10-11T19:57:03.773Z,67.18
2022-10-11T19:59:31.462Z,67.16
2022-10-11T20:01:59.444Z,67.05
2022-10-11T20:04:51.074Z,67.19
2022-10-11T20:07:16.195Z,67.31
2022-10-11T20:09:44.035Z,67.25
2022-10-11T20:12:12.904Z,67.35
2022-10-11T20:14:40.681Z,67.31
2022-10-11T20:17:08.381Z,67.25
2022-10-11T20:19:36.084Z,67.32
2022-10-11T20:22:06.035Z,67.31
2022-10-11T20:24:35.325Z,67.31
2022-10-11T20:27:07.570Z,67.36
2022-10-11T20:29:37.495Z,67.35
2022-10-11T20:32:08.909Z,67.40
2022-10-11T20:34:40.517Z,67.39
2022-10-11T20:37:08.407Z,67.44
2022-10-11T20:39:37.190Z,67.54
2022-10-11T20:42:05.938Z,67.45
2022-10-11T20:44:33.590Z,67.41
2022-10-11T20:47:04.011Z,67.47
2022-10-11T20:49:33.110Z,67.45
2022-10-11T20:52:01.339Z,67.54
2022-10-11T20:54:31.691Z,67.55
2022-10-11T20:57:01.227Z,67.55
2022-10-11T20:59:29.016Z,67.58
2022-10-11T21:01:57.843Z,67.45
2022-10-11T21:04:26.989Z,67.53
2022-10-11T21:06:55.920Z,67.62
2022-10-11T21:09:24.202Z,67.65
2022-10-11T21:11:52.015Z,67.78
2022-10-11T21:14:19.733Z,67.71
2022-10-11T21:16:47.689Z,67.68
2022-10-11T21:19:16.867Z,67.68
2022-10-11T21:21:53.331Z,67.67
2022-10-11T21:24:22.716Z,67.58
2022-10-11T21:26:51.534Z,67.61
2022-10-11T21:29:19.312Z,67.62
2022-10-11T21:31:50.295Z,67.58
2022-10-11T21:34:18.099Z,67.68
2022-10-11T21:36:46.905Z,67.67
2022-10-11T21:39:15.854Z,67.68
2022-10-11T21:41:43.539Z,67.66
2022-10-11T21:44:11.264Z,67.72
2022-10-11T21:49:26.685Z,67.70
2022-10-11T21:51:54.433Z,67.90
2022-10-11T21:54:22.083Z,67.85
2022-10-11T21:56:49.771Z,67.77
2022-10-11T21:59:17.397Z,67.77
2022-10-11T22:01:45.167Z,67.86
2022-10-11T22:04:12.925Z,67.88
2022-10-11T22:06:40.700Z,67.99
2022-10-11T22:09:10.690Z,67.96
2022-10-11T22:11:38.476Z,67.99
2022-10-11T22:14:06.283Z,67.90
2022-10-11T22:16:34.771Z,67.99
2022-10-11T22:19:05.261Z,68.18
2022-10-11T22:21:32.962Z,68.06
2022-10-11T22:24:00.907Z,68.14
2022-10-11T22:26:31.413Z,68.07
2022-10-11T22:29:00.679Z,68.02
2022-10-11T22:31:30.580Z,67.87
2022-10-11T22:34:01.702Z,67.97
2022-10-11T22:36:30.783Z,68.06
2022-10-11T22:38:59.840Z,68.13
2022-10-11T22:41:29.501Z,68.23
2022-10-11T22:43:57.262Z,68.13
2022-10-11T22:46:25.038Z,68.04
2022-10-11T22:48:52.727Z,68.14
2022-10-11T22:51:20.442Z,68.10
2022-10-11T22:53:49.610Z,68.30
2022-10-11T22:56:17.362Z,68.40
2022-10-11T22:58:46.458Z,68.26
2022-10-11T23:01:16.598Z,68.28
2022-10-11T23:03:51.700Z,68.32
2022-10-11T23:06:20.917Z,68.27
2022-10-11T23:08:51.004Z,68.28
2022-10-11T23:11:18.659Z,68.18
2022-10-11T23:13:46.344Z,68.25
2022-10-11T23:16:14.171Z,68.19
2022-10-11T23:18:43.273Z,68.23
2022-10-11T23:21:14.155Z,68.36
2022-10-11T23:23:42.884Z,68.41
2022-10-11T23:26:15.282Z,68.26
2022-10-11T23:28:44.744Z,68.34
2022-10-11T23:31:17.520Z,68.24
2022-10-11T23:33:47.560Z,68.47
2022-10-11T23:36:24.839Z,68.20
2022-10-11T23:38:57.895Z,68.43
2022-10-11T23:41:30.032Z,68.44
2022-10-11T23:43:58.796Z,68.52
2022-10-11T23:46:27.143Z,68.56
2022-10-11T23:48:54.827Z,68.47
2022-10-11T23:51:22.617Z,68.56
2022-10-11T23:53:50.393Z,68.53
2022-10-11T23:56:18.106Z,68.62
2022-10-11T23:58:45.877Z,68.62
